sensor_id;sensor_type;location;lat;lon;timestamp;P1;durP1;ratioP1;P2;durP2;ratioP2
10517;SDS011;5307;42.548;22.968;2022-10-16T00:01:03;7.53;;;5.38;;
10517;SDS011;5307;42.548;22.968;2022-10-16T00:03:32;8.52;;;5.43;;
10517;SDS011;5307;42.548;22.968;2022-10-16T00:05:59;9.48;;;5.40;;
10517;SDS011;5307;42.548;22.968;2022-10-16T00:08:27;13.23;;;5.57;;
10517;SDS011;5307;42.548;22.968;2022-10-16T00:10:58;10.52;;;4.90;;
10517;SDS011;5307;42.548;22.968;2022-10-16T00:13:26;7.35;;;5.00;;
10517;SDS011;5307;42.548;22.968;2022-10-16T00:15:54;12.95;;;5.85;;
10517;SDS011;5307;42.548;22.968;2022-10-16T00:18:22;9.15;;;5.32;;
10517;SDS011;5307;42.548;22.968;2022-10-16T00:20:49;11.48;;;5.10;;
10517;SDS011;5307;42.548;22.968;2022-10-16T00:23:15;7.90;;;4.70;;
10517;SDS011;5307;42.548;22.968;2022-10-16T00:25:42;9.32;;;5.38;;
10517;SDS011;5307;42.548;22.968;2022-10-16T00:28:09;9.35;;;4.90;;
10517;SDS011;5307;42.548;22.968;2022-10-16T00:30:39;12.65;;;5.07;;
10517;SDS011;5307;42.548;22.968;2022-10-16T00:33:06;6.88;;;5.15;;
10517;SDS011;5307;42.548;22.968;2022-10-16T00:35:33;11.02;;;5.20;;
10517;SDS011;5307;42.548;22.968;2022-10-16T00:38:00;10.82;;;5.15;;
10517;SDS011;5307;42.548;22.968;2022-10-16T00:40:27;9.48;;;5.45;;
10517;SDS011;5307;42.548;22.968;2022-10-16T00:42:54;8.32;;;5.55;;
10517;SDS011;5307;42.548;22.968;2022-10-16T00:45:22;19.48;;;5.55;;
10517;SDS011;5307;42.548;22.968;2022-10-16T00:47:50;8.13;;;5.40;;
10517;SDS011;5307;42.548;22.968;2022-10-16T00:50:22;10.90;;;6.05;;
10517;SDS011;5307;42.548;22.968;2022-10-16T00:52:52;13.93;;;5.35;;
10517;SDS011;5307;42.548;22.968;2022-10-16T00:55:20;9.90;;;5.63;;
10517;SDS011;5307;42.548;22.968;2022-10-16T00:57:47;8.07;;;5.32;;
10517;SDS011;5307;42.548;22.968;2022-10-16T01:00:18;8.40;;;4.95;;
10517;SDS011;5307;42.548;22.968;2022-10-16T01:02:52;9.90;;;5.15;;
10517;SDS011;5307;42.548;22.968;2022-10-16T01:05:20;8.88;;;5.07;;
10517;SDS011;5307;42.548;22.968;2022-10-16T01:07:51;8.88;;;5.25;;
10517;SDS011;5307;42.548;22.968;2022-10-16T01:10:24;9.50;;;5.90;;
10517;SDS011;5307;42.548;22.968;2022-10-16T01:12:55;10.50;;;5.68;;
10517;SDS011;5307;42.548;22.968;2022-10-16T01:15:26;7.57;;;5.40;;
10517;SDS011;5307;42.548;22.968;2022-10-16T01:17:59;20.45;;;10.55;;
10517;SDS011;5307;42.548;22.968;2022-10-16T01:20:30;14.60;;;8.85;;
10517;SDS011;5307;42.548;22.968;2022-10-16T01:23:05;18.17;;;9.15;;
10517;SDS011;5307;42.548;22.968;2022-10-16T01:25:43;12.35;;;7.30;;
10517;SDS011;5307;42.548;22.968;2022-10-16T01:28:34;14.52;;;5.65;;
10517;SDS011;5307;42.548;22.968;2022-10-16T01:31:04;11.30;;;6.13;;
10517;SDS011;5307;42.548;22.968;2022-10-16T01:33:34;10.23;;;6.60;;
10517;SDS011;5307;42.548;22.968;2022-10-16T01:36:07;9.32;;;5.80;;
10517;SDS011;5307;42.548;22.968;2022-10-16T01:38:39;10.82;;;5.55;;
10517;SDS011;5307;42.548;22.968;2022-10-16T01:41:08;13.00;;;5.85;;
10517;SDS011;5307;42.548;22.968;2022-10-16T01:43:40;13.63;;;5.90;;
10517;SDS011;5307;42.548;22.968;2022-10-16T01:46:11;10.05;;;6.18;;
10517;SDS011;5307;42.548;22.968;2022-10-16T01:48:40;12.27;;;6.57;;
10517;SDS011;5307;42.548;22.968;2022-10-16T01:51:08;16.02;;;6.47;;
10517;SDS011;5307;42.548;22.968;2022-10-16T01:53:38;17.25;;;6.40;;
10517;SDS011;5307;42.548;22.968;2022-10-16T01:56:07;7.95;;;5.15;;
10517;SDS011;5307;42.548;22.968;2022-10-16T01:58:37;12.48;;;5.10;;
10517;SDS011;5307;42.548;22.968;2022-10-16T02:01:11;10.88;;;5.45;;
10517;SDS011;5307;42.548;22.968;2022-10-16T02:03:41;9.98;;;5.80;;
10517;SDS011;5307;42.548;22.968;2022-10-16T02:06:11;13.93;;;7.13;;
10517;SDS011;5307;42.548;22.968;2022-10-16T02:08:38;9.18;;;5.95;;
10517;SDS011;5307;42.548;22.968;2022-10-16T02:11:09;10.50;;;6.03;;
10517;SDS011;5307;42.548;22.968;2022-10-16T02:13:37;13.13;;;6.38;;
10517;SDS011;5307;42.548;22.968;2022-10-16T02:16:11;11.18;;;6.25;;
10517;SDS011;5307;42.548;22.968;2022-10-16T02:18:39;12.65;;;6.80;;
10517;SDS011;5307;42.548;22.968;2022-10-16T02:21:08;12.88;;;7.45;;
10517;SDS011;5307;42.548;22.968;2022-10-16T02:23:43;9.65;;;6.53;;
10517;SDS011;5307;42.548;22.968;2022-10-16T02:26:17;15.57;;;7.60;;
10517;SDS011;5307;42.548;22.968;2022-10-16T02:28:54;10.05;;;6.35;;
10517;SDS011;5307;42.548;22.968;2022-10-16T02:31:25;11.77;;;6.00;;
10517;SDS011;5307;42.548;22.968;2022-10-16T02:33:55;9.52;;;5.78;;
10517;SDS011;5307;42.548;22.968;2022-10-16T02:36:24;11.07;;;6.32;;
10517;SDS011;5307;42.548;22.968;2022-10-16T02:38:52;9.23;;;5.63;;
10517;SDS011;5307;42.548;22.968;2022-10-16T02:41:20;9.32;;;5.13;;
10517;SDS011;5307;42.548;22.968;2022-10-16T02:43:47;9.57;;;5.75;;
10517;SDS011;5307;42.548;22.968;2022-10-16T02:46:15;12.75;;;5.88;;
10517;SDS011;5307;42.548;22.968;2022-10-16T02:48:45;8.65;;;5.15;;
10517;SDS011;5307;42.548;22.968;2022-10-16T02:51:12;13.25;;;5.90;;
10517;SDS011;5307;42.548;22.968;2022-10-16T02:53:39;9.68;;;5.65;;
10517;SDS011;5307;42.548;22.968;2022-10-16T02:56:05;10.43;;;6.40;;
10517;SDS011;5307;42.548;22.968;2022-10-16T02:58:32;17.63;;;6.18;;
10517;SDS011;5307;42.548;22.968;2022-10-16T03:00:59;11.55;;;5.88;;
10517;SDS011;5307;42.548;22.968;2022-10-16T03:03:26;9.88;;;6.65;;
10517;SDS011;5307;42.548;22.968;2022-10-16T03:05:54;20.00;;;6.38;;
10517;SDS011;5307;42.548;22.968;2022-10-16T03:08:21;11.38;;;6.18;;
10517;SDS011;5307;42.548;22.968;2022-10-16T03:10:50;11.45;;;6.10;;
10517;SDS011;5307;42.548;22.968;2022-10-16T03:13:17;7.72;;;5.30;;
10517;SDS011;5307;42.548;22.968;2022-10-16T03:15:45;9.20;;;5.53;;
10517;SDS011;5307;42.548;22.968;2022-10-16T03:18:12;6.05;;;4.80;;
10517;SDS011;5307;42.548;22.968;2022-10-16T03:20:39;8.32;;;5.35;;
10517;SDS011;5307;42.548;22.968;2022-10-16T03:23:07;6.30;;;4.60;;
10517;SDS011;5307;42.548;22.968;2022-10-16T03:25:34;9.05;;;5.45;;
10517;SDS011;5307;42.548;22.968;2022-10-16T03:28:00;14.32;;;6.13;;
10517;SDS011;5307;42.548;22.968;2022-10-16T03:30:28;10.00;;;6.20;;
10517;SDS011;5307;42.548;22.968;2022-10-16T03:32:55;8.90;;;6.10;;
10517;SDS011;5307;42.548;22.968;2022-10-16T03:35:22;9.00;;;6.47;;
10517;SDS011;5307;42.548;22.968;2022-10-16T03:37:49;12.82;;;6.70;;
10517;SDS011;5307;42.548;22.968;2022-10-16T03:40:18;12.13;;;6.30;;
10517;SDS011;5307;42.548;22.968;2022-10-16T03:42:45;8.45;;;5.75;;
10517;SDS011;5307;42.548;22.968;2022-10-16T03:45:11;10.45;;;5.80;;
10517;SDS011;5307;42.548;22.968;2022-10-16T03:47:39;8.27;;;5.43;;
10517;SDS011;5307;42.548;22.968;2022-10-16T03:50:07;10.43;;;5.72;;
10517;SDS011;5307;42.548;22.968;2022-10-16T03:52:34;8.15;;;5.38;;
10517;SDS011;5307;42.548;22.968;2022-10-16T03:55:01;7.78;;;5.22;;
10517;SDS011;5307;42.548;22.968;2022-10-16T03:57:29;10.77;;;6.15;;
10517;SDS011;5307;42.548;22.968;2022-10-16T03:59:56;9.20;;;6.13;;
10517;SDS011;5307;42.548;22.968;2022-10-16T04:02:24;11.60;;;6.38;;
10517;SDS011;5307;42.548;22.968;2022-10-16T04:04:50;13.48;;;6.97;;
10517;SDS011;5307;42.548;22.968;2022-10-16T04:07:17;9.20;;;5.75;;
10517;SDS011;5307;42.548;22.968;2022-10-16T04:09:44;14.40;;;7.15;;
10517;SDS011;5307;42.548;22.968;2022-10-16T04:12:11;16.02;;;6.78;;
10517;SDS011;5307;42.548;22.968;2022-10-16T04:14:39;10.18;;;6.57;;
10517;SDS011;5307;42.548;22.968;2022-10-16T04:17:06;10.55;;;6.50;;
10517;SDS011;5307;42.548;22.968;2022-10-16T04:19:33;12.90;;;6.80;;
10517;SDS011;5307;42.548;22.968;2022-10-16T04:22:00;11.35;;;6.20;;
10517;SDS011;5307;42.548;22.968;2022-10-16T04:24:26;12.50;;;6.40;;
10517;SDS011;5307;42.548;22.968;2022-10-16T04:26:53;12.05;;;6.63;;
10517;SDS011;5307;42.548;22.968;2022-10-16T04:29:20;11.38;;;6.60;;
10517;SDS011;5307;42.548;22.968;2022-10-16T04:31:48;11.23;;;6.40;;
10517;SDS011;5307;42.548;22.968;2022-10-16T04:34:15;9.18;;;5.25;;
10517;SDS011;5307;42.548;22.968;2022-10-16T04:36:42;10.48;;;6.78;;
10517;SDS011;5307;42.548;22.968;2022-10-16T04:39:09;11.07;;;6.68;;
10517;SDS011;5307;42.548;22.968;2022-10-16T04:41:36;9.13;;;5.65;;
10517;SDS011;5307;42.548;22.968;2022-10-16T04:44:02;9.85;;;6.28;;
10517;SDS011;5307;42.548;22.968;2022-10-16T04:46:29;11.77;;;6.00;;
10517;SDS011;5307;42.548;22.968;2022-10-16T04:48:58;14.48;;;7.53;;
10517;SDS011;5307;42.548;22.968;2022-10-16T04:51:25;16.45;;;7.22;;
10517;SDS011;5307;42.548;22.968;2022-10-16T04:53:52;13.65;;;7.85;;
10517;SDS011;5307;42.548;22.968;2022-10-16T04:56:19;14.13;;;7.05;;
10517;SDS011;5307;42.548;22.968;2022-10-16T04:58:46;14.70;;;8.05;;
10517;SDS011;5307;42.548;22.968;2022-10-16T05:01:13;15.30;;;8.27;;
10517;SDS011;5307;42.548;22.968;2022-10-16T05:03:40;14.35;;;9.00;;
10517;SDS011;5307;42.548;22.968;2022-10-16T05:06:08;17.10;;;9.40;;
10517;SDS011;5307;42.548;22.968;2022-10-16T05:08:35;19.67;;;8.98;;
10517;SDS011;5307;42.548;22.968;2022-10-16T05:11:02;17.73;;;9.40;;
10517;SDS011;5307;42.548;22.968;2022-10-16T05:13:28;17.02;;;9.13;;
10517;SDS011;5307;42.548;22.968;2022-10-16T05:15:55;16.77;;;9.30;;
10517;SDS011;5307;42.548;22.968;2022-10-16T05:18:22;16.17;;;10.57;;
10517;SDS011;5307;42.548;22.968;2022-10-16T05:20:49;19.13;;;10.00;;
10517;SDS011;5307;42.548;22.968;2022-10-16T05:23:17;19.77;;;9.38;;
10517;SDS011;5307;42.548;22.968;2022-10-16T05:25:51;13.85;;;9.43;;
10517;SDS011;5307;42.548;22.968;2022-10-16T05:28:18;14.93;;;9.32;;
10517;SDS011;5307;42.548;22.968;2022-10-16T05:30:45;17.30;;;9.60;;
10517;SDS011;5307;42.548;22.968;2022-10-16T05:33:12;19.85;;;10.85;;
10517;SDS011;5307;42.548;22.968;2022-10-16T05:35:39;19.30;;;11.55;;
10517;SDS011;5307;42.548;22.968;2022-10-16T05:38:05;32.67;;;13.90;;
10517;SDS011;5307;42.548;22.968;2022-10-16T05:40:34;22.10;;;12.23;;
10517;SDS011;5307;42.548;22.968;2022-10-16T05:43:00;19.15;;;10.50;;
10517;SDS011;5307;42.548;22.968;2022-10-16T05:45:27;16.63;;;10.13;;
10517;SDS011;5307;42.548;22.968;2022-10-16T05:47:54;19.83;;;11.65;;
10517;SDS011;5307;42.548;22.968;2022-10-16T05:50:21;22.10;;;11.45;;
10517;SDS011;5307;42.548;22.968;2022-10-16T05:52:47;18.20;;;12.82;;
10517;SDS011;5307;42.548;22.968;2022-10-16T05:55:14;26.63;;;15.25;;
10517;SDS011;5307;42.548;22.968;2022-10-16T05:57:43;29.98;;;15.50;;
10517;SDS011;5307;42.548;22.968;2022-10-16T06:00:10;30.08;;;15.68;;
10517;SDS011;5307;42.548;22.968;2022-10-16T06:02:37;28.48;;;16.45;;
10517;SDS011;5307;42.548;22.968;2022-10-16T06:05:04;33.80;;;18.10;;
10517;SDS011;5307;42.548;22.968;2022-10-16T06:07:33;34.78;;;18.85;;
10517;SDS011;5307;42.548;22.968;2022-10-16T06:10:01;31.58;;;18.55;;
10517;SDS011;5307;42.548;22.968;2022-10-16T06:12:28;35.78;;;18.02;;
10517;SDS011;5307;42.548;22.968;2022-10-16T06:14:56;26.25;;;15.77;;
10517;SDS011;5307;42.548;22.968;2022-10-16T06:17:23;29.20;;;15.85;;
10517;SDS011;5307;42.548;22.968;2022-10-16T06:19:50;25.83;;;12.82;;
10517;SDS011;5307;42.548;22.968;2022-10-16T06:22:17;20.90;;;12.60;;
10517;SDS011;5307;42.548;22.968;2022-10-16T06:24:43;21.70;;;13.32;;
10517;SDS011;5307;42.548;22.968;2022-10-16T06:27:11;19.50;;;12.23;;
10517;SDS011;5307;42.548;22.968;2022-10-16T06:29:38;25.77;;;12.45;;
10517;SDS011;5307;42.548;22.968;2022-10-16T06:32:06;19.23;;;13.13;;
10517;SDS011;5307;42.548;22.968;2022-10-16T06:34:33;25.48;;;12.23;;
10517;SDS011;5307;42.548;22.968;2022-10-16T06:37:00;26.83;;;12.55;;
10517;SDS011;5307;42.548;22.968;2022-10-16T06:39:26;21.95;;;12.82;;
10517;SDS011;5307;42.548;22.968;2022-10-16T06:41:53;23.98;;;12.57;;
10517;SDS011;5307;42.548;22.968;2022-10-16T06:44:20;22.48;;;13.15;;
10517;SDS011;5307;42.548;22.968;2022-10-16T06:46:47;19.10;;;11.98;;
10517;SDS011;5307;42.548;22.968;2022-10-16T06:49:16;20.23;;;11.35;;
10517;SDS011;5307;42.548;22.968;2022-10-16T06:51:47;18.00;;;10.57;;
10517;SDS011;5307;42.548;22.968;2022-10-16T06:54:14;18.13;;;11.43;;
10517;SDS011;5307;42.548;22.968;2022-10-16T06:56:43;19.17;;;10.55;;
10517;SDS011;5307;42.548;22.968;2022-10-16T06:59:09;18.08;;;10.88;;
10517;SDS011;5307;42.548;22.968;2022-10-16T07:01:36;17.63;;;11.30;;
10517;SDS011;5307;42.548;22.968;2022-10-16T07:04:03;21.23;;;12.27;;
10517;SDS011;5307;42.548;22.968;2022-10-16T07:06:32;23.95;;;13.40;;
10517;SDS011;5307;42.548;22.968;2022-10-16T07:09:01;24.15;;;13.27;;
10517;SDS011;5307;42.548;22.968;2022-10-16T07:11:30;22.65;;;12.80;;
10517;SDS011;5307;42.548;22.968;2022-10-16T07:13:57;34.28;;;13.90;;
10517;SDS011;5307;42.548;22.968;2022-10-16T07:16:24;24.73;;;12.98;;
10517;SDS011;5307;42.548;22.968;2022-10-16T07:18:53;25.00;;;13.75;;
10517;SDS011;5307;42.548;22.968;2022-10-16T07:21:23;24.08;;;13.38;;
10517;SDS011;5307;42.548;22.968;2022-10-16T07:23:53;21.42;;;13.43;;
10517;SDS011;5307;42.548;22.968;2022-10-16T07:26:20;28.42;;;13.45;;
10517;SDS011;5307;42.548;22.968;2022-10-16T07:28:48;22.42;;;12.38;;
10517;SDS011;5307;42.548;22.968;2022-10-16T07:31:16;23.05;;;12.15;;
10517;SDS011;5307;42.548;22.968;2022-10-16T07:33:44;28.70;;;12.43;;
10517;SDS011;5307;42.548;22.968;2022-10-16T07:36:13;22.02;;;11.88;;
10517;SDS011;5307;42.548;22.968;2022-10-16T07:38:40;18.75;;;11.68;;
10517;SDS011;5307;42.548;22.968;2022-10-16T07:41:11;16.48;;;11.15;;
10517;SDS011;5307;42.548;22.968;2022-10-16T07:43:38;18.42;;;10.82;;
10517;SDS011;5307;42.548;22.968;2022-10-16T07:46:06;20.60;;;11.73;;
10517;SDS011;5307;42.548;22.968;2022-10-16T07:48:33;17.65;;;11.77;;
10517;SDS011;5307;42.548;22.968;2022-10-16T07:51:01;20.92;;;11.40;;
10517;SDS011;5307;42.548;22.968;2022-10-16T07:53:30;19.95;;;11.02;;
10517;SDS011;5307;42.548;22.968;2022-10-16T07:55:57;22.15;;;11.15;;
10517;SDS011;5307;42.548;22.968;2022-10-16T07:58:26;21.35;;;11.50;;
10517;SDS011;5307;42.548;22.968;2022-10-16T08:00:53;18.73;;;11.40;;
10517;SDS011;5307;42.548;22.968;2022-10-16T08:03:28;16.67;;;11.57;;
10517;SDS011;5307;42.548;22.968;2022-10-16T08:05:56;17.65;;;10.10;;
10517;SDS011;5307;42.548;22.968;2022-10-16T08:08:23;17.58;;;10.65;;
10517;SDS011;5307;42.548;22.968;2022-10-16T08:10:50;18.55;;;10.90;;
10517;SDS011;5307;42.548;22.968;2022-10-16T08:13:17;15.73;;;9.98;;
10517;SDS011;5307;42.548;22.968;2022-10-16T08:15:45;16.88;;;11.30;;
10517;SDS011;5307;42.548;22.968;2022-10-16T08:18:13;16.30;;;10.77;;
10517;SDS011;5307;42.548;22.968;2022-10-16T08:20:41;19.20;;;10.82;;
10517;SDS011;5307;42.548;22.968;2022-10-16T08:23:09;19.48;;;11.70;;
10517;SDS011;5307;42.548;22.968;2022-10-16T08:25:37;22.58;;;11.18;;
10517;SDS011;5307;42.548;22.968;2022-10-16T08:28:04;18.17;;;11.95;;
10517;SDS011;5307;42.548;22.968;2022-10-16T08:30:31;19.35;;;11.15;;
10517;SDS011;5307;42.548;22.968;2022-10-16T08:33:00;12.98;;;7.93;;
10517;SDS011;5307;42.548;22.968;2022-10-16T08:35:27;10.68;;;7.50;;
10517;SDS011;5307;42.548;22.968;2022-10-16T08:37:54;13.18;;;7.38;;
10517;SDS011;5307;42.548;22.968;2022-10-16T08:40:22;13.80;;;7.28;;
10517;SDS011;5307;42.548;22.968;2022-10-16T08:42:54;10.63;;;6.75;;
10517;SDS011;5307;42.548;22.968;2022-10-16T08:45:39;8.93;;;6.35;;
10517;SDS011;5307;42.548;22.968;2022-10-16T08:48:17;29.73;;;20.20;;
10517;SDS011;5307;42.548;22.968;2022-10-16T08:50:51;14.40;;;8.48;;
10517;SDS011;5307;42.548;22.968;2022-10-16T08:53:20;11.90;;;6.90;;
10517;SDS011;5307;42.548;22.968;2022-10-16T08:55:52;10.32;;;5.63;;
10517;SDS011;5307;42.548;22.968;2022-10-16T08:58:20;11.35;;;5.80;;
10517;SDS011;5307;42.548;22.968;2022-10-16T09:00:49;9.25;;;5.72;;
10517;SDS011;5307;42.548;22.968;2022-10-16T09:03:27;10.68;;;5.13;;
10517;SDS011;5307;42.548;22.968;2022-10-16T09:06:14;13.10;;;5.53;;
10517;SDS011;5307;42.548;22.968;2022-10-16T09:09:04;9.70;;;6.22;;
10517;SDS011;5307;42.548;22.968;2022-10-16T09:11:44;12.10;;;6.93;;
10517;SDS011;5307;42.548;22.968;2022-10-16T09:14:20;9.23;;;5.32;;
10517;SDS011;5307;42.548;22.968;2022-10-16T09:17:04;11.88;;;7.50;;
10517;SDS011;5307;42.548;22.968;2022-10-16T09:19:42;9.27;;;6.28;;
10517;SDS011;5307;42.548;22.968;2022-10-16T09:22:16;12.70;;;6.05;;
10517;SDS011;5307;42.548;22.968;2022-10-16T09:24:48;12.00;;;6.22;;
10517;SDS011;5307;42.548;22.968;2022-10-16T09:27:15;8.43;;;5.15;;
10517;SDS011;5307;42.548;22.968;2022-10-16T09:29:42;12.63;;;5.35;;
10517;SDS011;5307;42.548;22.968;2022-10-16T09:32:10;12.63;;;5.68;;
10517;SDS011;5307;42.548;22.968;2022-10-16T09:34:39;11.80;;;6.05;;
10517;SDS011;5307;42.548;22.968;2022-10-16T09:37:12;8.73;;;5.50;;
10517;SDS011;5307;42.548;22.968;2022-10-16T09:39:46;14.80;;;5.72;;
10517;SDS011;5307;42.548;22.968;2022-10-16T09:42:15;10.38;;;5.13;;
10517;SDS011;5307;42.548;22.968;2022-10-16T09:44:47;11.88;;;5.80;;
10517;SDS011;5307;42.548;22.968;2022-10-16T09:47:15;11.60;;;5.22;;
10517;SDS011;5307;42.548;22.968;2022-10-16T09:49:52;10.52;;;5.22;;
10517;SDS011;5307;42.548;22.968;2022-10-16T09:52:20;13.10;;;5.60;;
10517;SDS011;5307;42.548;22.968;2022-10-16T09:54:50;13.63;;;6.18;;
10517;SDS011;5307;42.548;22.968;2022-10-16T09:57:19;11.27;;;5.35;;
10517;SDS011;5307;42.548;22.968;2022-10-16T09:59:47;8.90;;;5.70;;
10517;SDS011;5307;42.548;22.968;2022-10-16T10:02:15;8.98;;;5.78;;
10517;SDS011;5307;42.548;22.968;2022-10-16T10:04:46;10.43;;;5.13;;
10517;SDS011;5307;42.548;22.968;2022-10-16T10:07:18;9.55;;;5.20;;
10517;SDS011;5307;42.548;22.968;2022-10-16T10:09:50;9.15;;;5.57;;
10517;SDS011;5307;42.548;22.968;2022-10-16T10:12:19;12.45;;;4.82;;
10517;SDS011;5307;42.548;22.968;2022-10-16T10:14:48;10.20;;;5.60;;
10517;SDS011;5307;42.548;22.968;2022-10-16T10:17:17;9.30;;;5.68;;
10517;SDS011;5307;42.548;22.968;2022-10-16T10:19:47;9.30;;;5.55;;
10517;SDS011;5307;42.548;22.968;2022-10-16T10:22:18;10.25;;;5.72;;
10517;SDS011;5307;42.548;22.968;2022-10-16T10:25:10;8.45;;;4.75;;
10517;SDS011;5307;42.548;22.968;2022-10-16T10:27:46;17.73;;;7.20;;
10517;SDS011;5307;42.548;22.968;2022-10-16T10:30:21;12.55;;;5.95;;
10517;SDS011;5307;42.548;22.968;2022-10-16T10:32:54;13.07;;;5.53;;
10517;SDS011;5307;42.548;22.968;2022-10-16T10:35:37;15.98;;;9.05;;
10517;SDS011;5307;42.548;22.968;2022-10-16T10:38:19;9.00;;;4.97;;
10517;SDS011;5307;42.548;22.968;2022-10-16T10:40:56;9.48;;;5.50;;
10517;SDS011;5307;42.548;22.968;2022-10-16T10:43:40;12.27;;;5.93;;
10517;SDS011;5307;42.548;22.968;2022-10-16T10:46:18;10.82;;;5.40;;
10517;SDS011;5307;42.548;22.968;2022-10-16T10:48:59;14.82;;;5.05;;
10517;SDS011;5307;42.548;22.968;2022-10-16T10:51:40;8.13;;;5.03;;
10517;SDS011;5307;42.548;22.968;2022-10-16T10:54:17;7.28;;;5.10;;
10517;SDS011;5307;42.548;22.968;2022-10-16T10:56:56;11.98;;;5.55;;
10517;SDS011;5307;42.548;22.968;2022-10-16T10:59:32;6.30;;;4.00;;
10517;SDS011;5307;42.548;22.968;2022-10-16T11:02:13;9.45;;;4.68;;
10517;SDS011;5307;42.548;22.968;2022-10-16T11:04:54;7.10;;;4.10;;
10517;SDS011;5307;42.548;22.968;2022-10-16T11:07:42;5.97;;;3.47;;
10517;SDS011;5307;42.548;22.968;2022-10-16T11:10:16;4.50;;;3.33;;
10517;SDS011;5307;42.548;22.968;2022-10-16T11:12:47;7.75;;;3.92;;
10517;SDS011;5307;42.548;22.968;2022-10-16T11:15:19;7.50;;;4.05;;
10517;SDS011;5307;42.548;22.968;2022-10-16T11:17:52;7.45;;;3.85;;
10517;SDS011;5307;42.548;22.968;2022-10-16T11:20:25;5.82;;;3.67;;
10517;SDS011;5307;42.548;22.968;2022-10-16T11:22:56;5.90;;;3.70;;
10517;SDS011;5307;42.548;22.968;2022-10-16T11:25:29;8.07;;;3.58;;
10517;SDS011;5307;42.548;22.968;2022-10-16T11:27:58;5.25;;;3.10;;
10517;SDS011;5307;42.548;22.968;2022-10-16T11:30:30;9.77;;;3.30;;
10517;SDS011;5307;42.548;22.968;2022-10-16T11:33:05;5.93;;;3.17;;
10517;SDS011;5307;42.548;22.968;2022-10-16T11:35:47;6.72;;;3.25;;
10517;SDS011;5307;42.548;22.968;2022-10-16T11:38:20;3.92;;;2.60;;
10517;SDS011;5307;42.548;22.968;2022-10-16T11:40:58;10.13;;;3.63;;
10517;SDS011;5307;42.548;22.968;2022-10-16T11:43:28;5.15;;;3.40;;
10517;SDS011;5307;42.548;22.968;2022-10-16T11:46:04;7.55;;;3.17;;
10517;SDS011;5307;42.548;22.968;2022-10-16T11:48:39;5.72;;;2.92;;
10517;SDS011;5307;42.548;22.968;2022-10-16T11:51:11;6.40;;;3.00;;
10517;SDS011;5307;42.548;22.968;2022-10-16T11:53:45;6.85;;;3.70;;
10517;SDS011;5307;42.548;22.968;2022-10-16T11:56:21;8.45;;;3.08;;
10517;SDS011;5307;42.548;22.968;2022-10-16T11:58:51;11.02;;;3.72;;
10517;SDS011;5307;42.548;22.968;2022-10-16T12:01:25;4.47;;;3.00;;
10517;SDS011;5307;42.548;22.968;2022-10-16T12:04:00;5.72;;;3.40;;
10517;SDS011;5307;42.548;22.968;2022-10-16T12:06:34;4.22;;;2.38;;
10517;SDS011;5307;42.548;22.968;2022-10-16T12:09:09;7.43;;;3.05;;
10517;SDS011;5307;42.548;22.968;2022-10-16T12:11:42;9.32;;;3.90;;
10517;SDS011;5307;42.548;22.968;2022-10-16T12:14:20;4.07;;;2.67;;
10517;SDS011;5307;42.548;22.968;2022-10-16T12:17:03;6.72;;;2.97;;
10517;SDS011;5307;42.548;22.968;2022-10-16T12:19:56;6.47;;;3.47;;
10517;SDS011;5307;42.548;22.968;2022-10-16T12:22:24;4.38;;;2.90;;
10517;SDS011;5307;42.548;22.968;2022-10-16T12:24:55;5.65;;;2.50;;
10517;SDS011;5307;42.548;22.968;2022-10-16T12:27:25;7.32;;;3.63;;
10517;SDS011;5307;42.548;22.968;2022-10-16T12:29:55;13.32;;;3.40;;
10517;SDS011;5307;42.548;22.968;2022-10-16T12:35:20;6.00;;;3.15;;
10517;SDS011;5307;42.548;22.968;2022-10-16T12:37:48;6.47;;;4.18;;
10517;SDS011;5307;42.548;22.968;2022-10-16T12:40:27;8.60;;;4.30;;
10517;SDS011;5307;42.548;22.968;2022-10-16T12:45:58;10.07;;;3.15;;
10517;SDS011;5307;42.548;22.968;2022-10-16T12:48:26;9.80;;;5.10;;
10517;SDS011;5307;42.548;22.968;2022-10-16T12:50:53;4.93;;;2.50;;
10517;SDS011;5307;42.548;22.968;2022-10-16T12:53:23;4.38;;;2.45;;
10517;SDS011;5307;42.548;22.968;2022-10-16T12:56:00;6.03;;;2.80;;
10517;SDS011;5307;42.548;22.968;2022-10-16T12:58:49;7.93;;;3.15;;
10517;SDS011;5307;42.548;22.968;2022-10-16T13:01:28;6.97;;;4.28;;
10517;SDS011;5307;42.548;22.968;2022-10-16T13:06:55;8.70;;;3.85;;
10517;SDS011;5307;42.548;22.968;2022-10-16T13:09:30;9.60;;;4.53;;
10517;SDS011;5307;42.548;22.968;2022-10-16T13:12:07;5.43;;;3.22;;
10517;SDS011;5307;42.548;22.968;2022-10-16T13:15:00;7.70;;;4.07;;
10517;SDS011;5307;42.548;22.968;2022-10-16T13:17:45;4.93;;;2.97;;
10517;SDS011;5307;42.548;22.968;2022-10-16T13:20:22;9.15;;;3.88;;
10517;SDS011;5307;42.548;22.968;2022-10-16T13:22:59;3.13;;;1.95;;
10517;SDS011;5307;42.548;22.968;2022-10-16T13:25:38;7.95;;;3.55;;
10517;SDS011;5307;42.548;22.968;2022-10-16T13:28:13;8.88;;;3.55;;
10517;SDS011;5307;42.548;22.968;2022-10-16T13:30:43;9.35;;;3.97;;
10517;SDS011;5307;42.548;22.968;2022-10-16T13:33:17;5.82;;;2.90;;
10517;SDS011;5307;42.548;22.968;2022-10-16T13:35:52;8.57;;;3.33;;
10517;SDS011;5307;42.548;22.968;2022-10-16T13:38:22;7.93;;;3.53;;
10517;SDS011;5307;42.548;22.968;2022-10-16T13:40:53;6.40;;;3.95;;
10517;SDS011;5307;42.548;22.968;2022-10-16T13:43:23;9.00;;;5.32;;
10517;SDS011;5307;42.548;22.968;2022-10-16T13:45:59;18.65;;;8.25;;
10517;SDS011;5307;42.548;22.968;2022-10-16T13:48:27;12.35;;;6.18;;
10517;SDS011;5307;42.548;22.968;2022-10-16T13:50:58;9.95;;;4.68;;
10517;SDS011;5307;42.548;22.968;2022-10-16T13:53:26;3.75;;;2.63;;
10517;SDS011;5307;42.548;22.968;2022-10-16T13:55:53;6.15;;;3.00;;
10517;SDS011;5307;42.548;22.968;2022-10-16T13:58:20;9.52;;;4.88;;
10517;SDS011;5307;42.548;22.968;2022-10-16T14:00:53;8.18;;;3.15;;
10517;SDS011;5307;42.548;22.968;2022-10-16T14:03:25;5.90;;;2.80;;
10517;SDS011;5307;42.548;22.968;2022-10-16T14:05:54;3.45;;;2.50;;
10517;SDS011;5307;42.548;22.968;2022-10-16T14:08:23;3.75;;;2.85;;
10517;SDS011;5307;42.548;22.968;2022-10-16T14:10:52;3.72;;;2.50;;
10517;SDS011;5307;42.548;22.968;2022-10-16T14:13:23;3.13;;;2.50;;
10517;SDS011;5307;42.548;22.968;2022-10-16T14:15:55;3.38;;;2.53;;
10517;SDS011;5307;42.548;22.968;2022-10-16T14:18:25;3.28;;;2.60;;
10517;SDS011;5307;42.548;22.968;2022-10-16T14:20:53;2.65;;;2.22;;
10517;SDS011;5307;42.548;22.968;2022-10-16T14:23:22;5.43;;;3.10;;
10517;SDS011;5307;42.548;22.968;2022-10-16T14:25:54;4.40;;;3.20;;
10517;SDS011;5307;42.548;22.968;2022-10-16T14:28:32;7.40;;;3.17;;
10517;SDS011;5307;42.548;22.968;2022-10-16T14:30:59;6.65;;;3.67;;
10517;SDS011;5307;42.548;22.968;2022-10-16T14:33:32;9.45;;;3.75;;
10517;SDS011;5307;42.548;22.968;2022-10-16T14:36:01;6.88;;;3.85;;
10517;SDS011;5307;42.548;22.968;2022-10-16T14:38:30;4.45;;;2.75;;
10517;SDS011;5307;42.548;22.968;2022-10-16T14:40:58;18.40;;;10.10;;
10517;SDS011;5307;42.548;22.968;2022-10-16T14:43:29;11.80;;;9.43;;
10517;SDS011;5307;42.548;22.968;2022-10-16T14:45:59;5.85;;;3.45;;
10517;SDS011;5307;42.548;22.968;2022-10-16T14:48:27;5.82;;;3.60;;
10517;SDS011;5307;42.548;22.968;2022-10-16T14:50:56;4.85;;;3.70;;
10517;SDS011;5307;42.548;22.968;2022-10-16T14:53:23;10.82;;;5.00;;
10517;SDS011;5307;42.548;22.968;2022-10-16T14:55:50;4.68;;;3.13;;
10517;SDS011;5307;42.548;22.968;2022-10-16T14:58:17;3.75;;;3.35;;
10517;SDS011;5307;42.548;22.968;2022-10-16T15:00:46;4.38;;;3.42;;
10517;SDS011;5307;42.548;22.968;2022-10-16T15:03:14;6.05;;;3.85;;
10517;SDS011;5307;42.548;22.968;2022-10-16T15:05:41;8.63;;;3.80;;